sensor_id;sensor_type;location;lat;lon;timestamp;P1;durP1;ratioP1;P2;durP2;ratioP2
42912;SDS011;50720;54.324;18.558;2022-08-25T00:00:21;14.10;;;6.47;;
42912;SDS011;50720;54.324;18.558;2022-08-25T00:03:05;16.92;;;5.72;;
42912;SDS011;50720;54.324;18.558;2022-08-25T00:05:35;20.20;;;5.70;;
42912;SDS011;50720;54.324;18.558;2022-08-25T00:08:06;17.15;;;5.82;;
42912;SDS011;50720;54.324;18.558;2022-08-25T00:10:36;17.30;;;6.30;;
42912;SDS011;50720;54.324;18.558;2022-08-25T00:13:08;17.38;;;5.32;;
42912;SDS011;50720;54.324;18.558;2022-08-25T00:15:38;15.10;;;5.50;;
42912;SDS011;50720;54.324;18.558;2022-08-25T00:18:08;17.85;;;5.85;;
42912;SDS011;50720;54.324;18.558;2022-08-25T00:20:45;11.10;;;4.78;;
42912;SDS011;50720;54.324;18.558;2022-08-25T00:23:15;16.08;;;5.00;;
42912;SDS011;50720;54.324;18.558;2022-08-25T00:25:46;15.32;;;5.13;;
42912;SDS011;50720;54.324;18.558;2022-08-25T00:28:19;16.60;;;6.35;;
42912;SDS011;50720;54.324;18.558;2022-08-25T00:30:48;16.50;;;5.07;;
42912;SDS011;50720;54.324;18.558;2022-08-25T00:33:18;15.30;;;5.32;;
42912;SDS011;50720;54.324;18.558;2022-08-25T00:35:48;15.90;;;5.30;;
42912;SDS011;50720;54.324;18.558;2022-08-25T00:38:18;19.13;;;6.13;;
42912;SDS011;50720;54.324;18.558;2022-08-25T00:40:49;11.13;;;4.80;;
42912;SDS011;50720;54.324;18.558;2022-08-25T00:43:42;15.60;;;5.10;;
42912;SDS011;50720;54.324;18.558;2022-08-25T00:46:14;16.80;;;5.13;;
42912;SDS011;50720;54.324;18.558;2022-08-25T00:48:46;12.25;;;4.32;;
42912;SDS011;50720;54.324;18.558;2022-08-25T00:51:20;14.70;;;5.05;;
42912;SDS011;50720;54.324;18.558;2022-08-25T00:53:55;16.10;;;5.18;;
42912;SDS011;50720;54.324;18.558;2022-08-25T00:56:26;17.63;;;5.05;;
42912;SDS011;50720;54.324;18.558;2022-08-25T00:58:59;13.48;;;5.00;;
42912;SDS011;50720;54.324;18.558;2022-08-25T01:01:31;14.07;;;5.22;;
42912;SDS011;50720;54.324;18.558;2022-08-25T01:04:00;14.53;;;5.00;;
42912;SDS011;50720;54.324;18.558;2022-08-25T01:06:30;10.60;;;4.80;;
42912;SDS011;50720;54.324;18.558;2022-08-25T01:09:04;16.60;;;4.70;;
42912;SDS011;50720;54.324;18.558;2022-08-25T01:11:35;16.10;;;5.03;;
42912;SDS011;50720;54.324;18.558;2022-08-25T01:14:07;12.45;;;5.72;;
42912;SDS011;50720;54.324;18.558;2022-08-25T01:16:38;17.88;;;4.60;;
42912;SDS011;50720;54.324;18.558;2022-08-25T01:19:11;22.27;;;6.47;;
42912;SDS011;50720;54.324;18.558;2022-08-25T01:21:45;9.32;;;4.97;;
42912;SDS011;50720;54.324;18.558;2022-08-25T01:24:19;10.57;;;3.60;;
42912;SDS011;50720;54.324;18.558;2022-08-25T01:26:53;16.60;;;5.25;;
42912;SDS011;50720;54.324;18.558;2022-08-25T01:29:23;7.97;;;4.40;;
42912;SDS011;50720;54.324;18.558;2022-08-25T01:31:54;14.73;;;4.75;;
42912;SDS011;50720;54.324;18.558;2022-08-25T01:34:27;12.95;;;5.03;;
42912;SDS011;50720;54.324;18.558;2022-08-25T01:37:00;12.48;;;4.82;;
42912;SDS011;50720;54.324;18.558;2022-08-25T01:39:30;9.40;;;4.68;;
42912;SDS011;50720;54.324;18.558;2022-08-25T01:42:08;16.10;;;4.28;;
42912;SDS011;50720;54.324;18.558;2022-08-25T01:44:47;12.90;;;5.43;;
42912;SDS011;50720;54.324;18.558;2022-08-25T01:47:16;13.57;;;5.17;;
42912;SDS011;50720;54.324;18.558;2022-08-25T01:49:46;14.00;;;5.25;;
42912;SDS011;50720;54.324;18.558;2022-08-25T01:52:22;8.27;;;4.60;;
42912;SDS011;50720;54.324;18.558;2022-08-25T01:54:55;11.13;;;5.15;;
42912;SDS011;50720;54.324;18.558;2022-08-25T01:57:27;16.50;;;5.70;;
42912;SDS011;50720;54.324;18.558;2022-08-25T01:59:57;10.75;;;6.07;;
42912;SDS011;50720;54.324;18.558;2022-08-25T02:02:28;15.95;;;7.45;;
42912;SDS011;50720;54.324;18.558;2022-08-25T02:04:58;19.20;;;7.18;;
42912;SDS011;50720;54.324;18.558;2022-08-25T02:07:30;17.73;;;7.05;;
42912;SDS011;50720;54.324;18.558;2022-08-25T02:10:00;16.25;;;7.40;;
42912;SDS011;50720;54.324;18.558;2022-08-25T02:12:31;17.50;;;5.80;;
42912;SDS011;50720;54.324;18.558;2022-08-25T02:15:02;12.57;;;6.28;;
42912;SDS011;50720;54.324;18.558;2022-08-25T02:17:33;16.63;;;7.68;;
42912;SDS011;50720;54.324;18.558;2022-08-25T02:22:36;15.93;;;6.53;;
42912;SDS011;50720;54.324;18.558;2022-08-25T02:25:10;9.98;;;5.85;;
42912;SDS011;50720;54.324;18.558;2022-08-25T02:27:40;15.90;;;8.02;;
42912;SDS011;50720;54.324;18.558;2022-08-25T02:30:10;17.67;;;7.50;;
42912;SDS011;50720;54.324;18.558;2022-08-25T02:32:41;13.63;;;7.60;;
42912;SDS011;50720;54.324;18.558;2022-08-25T02:35:11;14.07;;;6.95;;
42912;SDS011;50720;54.324;18.558;2022-08-25T02:37:42;17.55;;;9.00;;
42912;SDS011;50720;54.324;18.558;2022-08-25T02:40:12;16.08;;;8.02;;
42912;SDS011;50720;54.324;18.558;2022-08-25T02:42:42;12.93;;;6.27;;
42912;SDS011;50720;54.324;18.558;2022-08-25T02:45:11;18.20;;;6.53;;
42912;SDS011;50720;54.324;18.558;2022-08-25T02:47:41;20.33;;;8.55;;
42912;SDS011;50720;54.324;18.558;2022-08-25T02:50:11;11.98;;;6.82;;
42912;SDS011;50720;54.324;18.558;2022-08-25T02:52:43;18.88;;;8.75;;
42912;SDS011;50720;54.324;18.558;2022-08-25T02:55:13;13.15;;;6.97;;
42912;SDS011;50720;54.324;18.558;2022-08-25T02:57:42;13.10;;;6.53;;
42912;SDS011;50720;54.324;18.558;2022-08-25T03:00:13;15.65;;;8.20;;
42912;SDS011;50720;54.324;18.558;2022-08-25T03:02:45;15.80;;;8.13;;
42912;SDS011;50720;54.324;18.558;2022-08-25T03:05:14;17.07;;;7.83;;
42912;SDS011;50720;54.324;18.558;2022-08-25T03:07:45;25.17;;;8.45;;
42912;SDS011;50720;54.324;18.558;2022-08-25T03:10:16;19.05;;;7.68;;
42912;SDS011;50720;54.324;18.558;2022-08-25T03:12:47;16.67;;;7.60;;
42912;SDS011;50720;54.324;18.558;2022-08-25T03:15:17;20.60;;;10.38;;
42912;SDS011;50720;54.324;18.558;2022-08-25T03:17:47;16.88;;;8.10;;
42912;SDS011;50720;54.324;18.558;2022-08-25T03:20:17;12.35;;;7.70;;
42912;SDS011;50720;54.324;18.558;2022-08-25T03:22:50;17.60;;;7.60;;
42912;SDS011;50720;54.324;18.558;2022-08-25T03:25:19;17.48;;;7.85;;
42912;SDS011;50720;54.324;18.558;2022-08-25T03:28:18;16.85;;;6.97;;
42912;SDS011;50720;54.324;18.558;2022-08-25T03:30:55;15.18;;;6.80;;
42912;SDS011;50720;54.324;18.558;2022-08-25T03:33:26;19.70;;;6.90;;
42912;SDS011;50720;54.324;18.558;2022-08-25T03:35:56;14.82;;;7.15;;
42912;SDS011;50720;54.324;18.558;2022-08-25T03:38:27;11.50;;;7.00;;
42912;SDS011;50720;54.324;18.558;2022-08-25T03:40:58;13.50;;;6.72;;
42912;SDS011;50720;54.324;18.558;2022-08-25T03:43:28;18.25;;;7.45;;
42912;SDS011;50720;54.324;18.558;2022-08-25T03:45:58;18.45;;;7.05;;
42912;SDS011;50720;54.324;18.558;2022-08-25T03:48:28;10.38;;;6.80;;
42912;SDS011;50720;54.324;18.558;2022-08-25T03:50:57;15.10;;;8.60;;
42912;SDS011;50720;54.324;18.558;2022-08-25T03:53:29;14.48;;;6.85;;
42912;SDS011;50720;54.324;18.558;2022-08-25T03:55:58;15.38;;;7.57;;
42912;SDS011;50720;54.324;18.558;2022-08-25T03:58:28;8.52;;;7.70;;
42912;SDS011;50720;54.324;18.558;2022-08-25T04:00:57;13.57;;;7.43;;
42912;SDS011;50720;54.324;18.558;2022-08-25T04:03:27;17.33;;;8.10;;
42912;SDS011;50720;54.324;18.558;2022-08-25T04:05:59;13.20;;;6.57;;
42912;SDS011;50720;54.324;18.558;2022-08-25T04:08:30;17.33;;;7.70;;
42912;SDS011;50720;54.324;18.558;2022-08-25T04:11:04;17.95;;;7.22;;
42912;SDS011;50720;54.324;18.558;2022-08-25T04:13:34;24.60;;;7.72;;
42912;SDS011;50720;54.324;18.558;2022-08-25T04:16:08;19.60;;;8.40;;
42912;SDS011;50720;54.324;18.558;2022-08-25T04:18:40;13.82;;;6.88;;
42912;SDS011;50720;54.324;18.558;2022-08-25T04:21:11;13.65;;;7.57;;
42912;SDS011;50720;54.324;18.558;2022-08-25T04:26:14;13.88;;;6.63;;
42912;SDS011;50720;54.324;18.558;2022-08-25T04:28:46;14.15;;;7.03;;
42912;SDS011;50720;54.324;18.558;2022-08-25T04:31:17;15.05;;;6.82;;
42912;SDS011;50720;54.324;18.558;2022-08-25T04:33:48;13.70;;;7.00;;
42912;SDS011;50720;54.324;18.558;2022-08-25T04:36:18;17.77;;;7.28;;
42912;SDS011;50720;54.324;18.558;2022-08-25T04:38:49;14.10;;;6.53;;
42912;SDS011;50720;54.324;18.558;2022-08-25T04:41:20;14.70;;;5.95;;
42912;SDS011;50720;54.324;18.558;2022-08-25T04:43:51;13.23;;;6.07;;
42912;SDS011;50720;54.324;18.558;2022-08-25T04:46:25;18.42;;;6.75;;
42912;SDS011;50720;54.324;18.558;2022-08-25T04:48:57;16.92;;;6.25;;
42912;SDS011;50720;54.324;18.558;2022-08-25T04:51:29;15.73;;;7.28;;
42912;SDS011;50720;54.324;18.558;2022-08-25T04:54:03;16.48;;;6.70;;
42912;SDS011;50720;54.324;18.558;2022-08-25T04:56:34;13.73;;;5.97;;
42912;SDS011;50720;54.324;18.558;2022-08-25T04:59:05;13.57;;;6.10;;
42912;SDS011;50720;54.324;18.558;2022-08-25T05:01:37;13.85;;;6.05;;
42912;SDS011;50720;54.324;18.558;2022-08-25T05:04:08;13.02;;;5.60;;
42912;SDS011;50720;54.324;18.558;2022-08-25T05:06:56;14.18;;;6.55;;
42912;SDS011;50720;54.324;18.558;2022-08-25T05:09:27;20.52;;;7.00;;
42912;SDS011;50720;54.324;18.558;2022-08-25T05:11:59;15.75;;;6.03;;
42912;SDS011;50720;54.324;18.558;2022-08-25T05:17:00;21.00;;;7.78;;
42912;SDS011;50720;54.324;18.558;2022-08-25T05:19:30;17.08;;;6.95;;
42912;SDS011;50720;54.324;18.558;2022-08-25T05:21:59;12.38;;;6.18;;
42912;SDS011;50720;54.324;18.558;2022-08-25T05:24:31;12.77;;;7.20;;
42912;SDS011;50720;54.324;18.558;2022-08-25T05:27:00;15.05;;;6.63;;
42912;SDS011;50720;54.324;18.558;2022-08-25T05:29:31;14.68;;;5.93;;
42912;SDS011;50720;54.324;18.558;2022-08-25T05:32:00;17.63;;;5.97;;
42912;SDS011;50720;54.324;18.558;2022-08-25T05:34:30;17.13;;;6.27;;
42912;SDS011;50720;54.324;18.558;2022-08-25T05:37:00;18.42;;;5.57;;
42912;SDS011;50720;54.324;18.558;2022-08-25T05:39:34;10.95;;;5.45;;
42912;SDS011;50720;54.324;18.558;2022-08-25T05:42:04;14.65;;;5.97;;
42912;SDS011;50720;54.324;18.558;2022-08-25T05:44:34;12.50;;;5.38;;
42912;SDS011;50720;54.324;18.558;2022-08-25T05:47:04;15.23;;;5.22;;
42912;SDS011;50720;54.324;18.558;2022-08-25T05:49:34;14.52;;;5.22;;
42912;SDS011;50720;54.324;18.558;2022-08-25T05:52:04;10.07;;;5.47;;
42912;SDS011;50720;54.324;18.558;2022-08-25T05:54:35;19.63;;;5.30;;
42912;SDS011;50720;54.324;18.558;2022-08-25T05:57:06;14.95;;;4.82;;
42912;SDS011;50720;54.324;18.558;2022-08-25T05:59:36;18.70;;;6.10;;
42912;SDS011;50720;54.324;18.558;2022-08-25T06:02:05;19.93;;;5.03;;
42912;SDS011;50720;54.324;18.558;2022-08-25T06:04:53;16.98;;;6.47;;
42912;SDS011;50720;54.324;18.558;2022-08-25T06:07:23;21.48;;;8.18;;
42912;SDS011;50720;54.324;18.558;2022-08-25T06:12:24;11.07;;;4.72;;
42912;SDS011;50720;54.324;18.558;2022-08-25T06:14:54;11.98;;;4.78;;
42912;SDS011;50720;54.324;18.558;2022-08-25T06:17:23;13.93;;;4.97;;
42912;SDS011;50720;54.324;18.558;2022-08-25T06:19:53;13.75;;;4.68;;
42912;SDS011;50720;54.324;18.558;2022-08-25T06:22:23;10.23;;;4.82;;
42912;SDS011;50720;54.324;18.558;2022-08-25T06:24:52;17.30;;;5.15;;
42912;SDS011;50720;54.324;18.558;2022-08-25T06:27:23;14.55;;;4.60;;
42912;SDS011;50720;54.324;18.558;2022-08-25T06:29:53;12.40;;;4.70;;
42912;SDS011;50720;54.324;18.558;2022-08-25T06:32:26;13.07;;;4.93;;
42912;SDS011;50720;54.324;18.558;2022-08-25T06:34:58;15.60;;;4.82;;
42912;SDS011;50720;54.324;18.558;2022-08-25T06:37:28;15.55;;;5.65;;
42912;SDS011;50720;54.324;18.558;2022-08-25T06:39:59;11.73;;;5.88;;
42912;SDS011;50720;54.324;18.558;2022-08-25T06:42:30;14.52;;;5.03;;
42912;SDS011;50720;54.324;18.558;2022-08-25T06:44:59;12.07;;;5.63;;
42912;SDS011;50720;54.324;18.558;2022-08-25T06:47:29;12.17;;;4.63;;
42912;SDS011;50720;54.324;18.558;2022-08-25T06:49:59;15.73;;;5.30;;
42912;SDS011;50720;54.324;18.558;2022-08-25T06:52:30;17.88;;;5.43;;
42912;SDS011;50720;54.324;18.558;2022-08-25T06:55:01;20.05;;;5.97;;
42912;SDS011;50720;54.324;18.558;2022-08-25T06:57:33;19.08;;;5.35;;
42912;SDS011;50720;54.324;18.558;2022-08-25T07:00:03;18.70;;;5.72;;
42912;SDS011;50720;54.324;18.558;2022-08-25T07:02:34;17.38;;;5.22;;
42912;SDS011;50720;54.324;18.558;2022-08-25T07:05:04;16.77;;;5.90;;
42912;SDS011;50720;54.324;18.558;2022-08-25T07:07:39;22.75;;;5.50;;
42912;SDS011;50720;54.324;18.558;2022-08-25T07:10:12;16.35;;;5.40;;
42912;SDS011;50720;54.324;18.558;2022-08-25T07:12:45;18.83;;;4.95;;
42912;SDS011;50720;54.324;18.558;2022-08-25T07:15:14;15.10;;;5.22;;
42912;SDS011;50720;54.324;18.558;2022-08-25T07:17:47;25.65;;;5.22;;
42912;SDS011;50720;54.324;18.558;2022-08-25T07:20:17;18.50;;;5.22;;
42912;SDS011;50720;54.324;18.558;2022-08-25T07:22:47;14.65;;;5.78;;
42912;SDS011;50720;54.324;18.558;2022-08-25T07:25:18;13.85;;;4.85;;
42912;SDS011;50720;54.324;18.558;2022-08-25T07:27:47;17.20;;;6.10;;
42912;SDS011;50720;54.324;18.558;2022-08-25T07:30:22;14.15;;;5.45;;
42912;SDS011;50720;54.324;18.558;2022-08-25T07:32:51;21.10;;;11.30;;
42912;SDS011;50720;54.324;18.558;2022-08-25T07:35:21;14.35;;;5.88;;
42912;SDS011;50720;54.324;18.558;2022-08-25T07:38:03;19.27;;;5.47;;
42912;SDS011;50720;54.324;18.558;2022-08-25T07:40:39;23.55;;;6.45;;
42912;SDS011;50720;54.324;18.558;2022-08-25T07:43:11;14.73;;;4.75;;
42912;SDS011;50720;54.324;18.558;2022-08-25T07:45:41;18.67;;;5.45;;
42912;SDS011;50720;54.324;18.558;2022-08-25T07:48:16;16.67;;;5.72;;
42912;SDS011;50720;54.324;18.558;2022-08-25T07:50:46;11.32;;;4.75;;
42912;SDS011;50720;54.324;18.558;2022-08-25T07:53:18;22.55;;;7.43;;
42912;SDS011;50720;54.324;18.558;2022-08-25T07:55:49;25.98;;;7.22;;
42912;SDS011;50720;54.324;18.558;2022-08-25T07:58:20;17.50;;;5.65;;
42912;SDS011;50720;54.324;18.558;2022-08-25T08:00:50;9.60;;;5.40;;
42912;SDS011;50720;54.324;18.558;2022-08-25T08:03:20;12.05;;;5.85;;
42912;SDS011;50720;54.324;18.558;2022-08-25T08:06:10;12.80;;;5.68;;
42912;SDS011;50720;54.324;18.558;2022-08-25T08:08:42;15.30;;;5.57;;
42912;SDS011;50720;54.324;18.558;2022-08-25T08:11:18;12.57;;;5.15;;
42912;SDS011;50720;54.324;18.558;2022-08-25T08:13:49;13.90;;;5.85;;
42912;SDS011;50720;54.324;18.558;2022-08-25T08:16:21;14.27;;;5.40;;
42912;SDS011;50720;54.324;18.558;2022-08-25T08:18:54;12.13;;;5.60;;
42912;SDS011;50720;54.324;18.558;2022-08-25T08:21:26;13.98;;;6.35;;
42912;SDS011;50720;54.324;18.558;2022-08-25T08:23:59;17.27;;;7.75;;
42912;SDS011;50720;54.324;18.558;2022-08-25T08:26:42;23.05;;;7.80;;
42912;SDS011;50720;54.324;18.558;2022-08-25T08:29:24;19.38;;;6.22;;
42912;SDS011;50720;54.324;18.558;2022-08-25T08:31:54;16.70;;;6.60;;
42912;SDS011;50720;54.324;18.558;2022-08-25T08:34:24;14.30;;;6.82;;
42912;SDS011;50720;54.324;18.558;2022-08-25T08:36:53;18.13;;;6.65;;
42912;SDS011;50720;54.324;18.558;2022-08-25T08:41:56;13.55;;;6.85;;
42912;SDS011;50720;54.324;18.558;2022-08-25T08:44:52;15.15;;;7.60;;
42912;SDS011;50720;54.324;18.558;2022-08-25T08:47:44;13.20;;;7.20;;
42912;SDS011;50720;54.324;18.558;2022-08-25T08:50:24;25.98;;;8.68;;
42912;SDS011;50720;54.324;18.558;2022-08-25T08:53:01;20.58;;;8.15;;
42912;SDS011;50720;54.324;18.558;2022-08-25T08:55:36;20.35;;;10.38;;
42912;SDS011;50720;54.324;18.558;2022-08-25T08:58:12;22.60;;;10.02;;
42912;SDS011;50720;54.324;18.558;2022-08-25T09:00:53;21.75;;;11.10;;
42912;SDS011;50720;54.324;18.558;2022-08-25T09:03:28;21.90;;;10.88;;
42912;SDS011;50720;54.324;18.558;2022-08-25T09:08:36;24.70;;;11.32;;
42912;SDS011;50720;54.324;18.558;2022-08-25T09:11:12;29.05;;;14.70;;
42912;SDS011;50720;54.324;18.558;2022-08-25T09:13:59;22.60;;;12.23;;
42912;SDS011;50720;54.324;18.558;2022-08-25T09:16:38;26.50;;;13.10;;
42912;SDS011;50720;54.324;18.558;2022-08-25T09:19:26;24.95;;;12.60;;
42912;SDS011;50720;54.324;18.558;2022-08-25T09:22:12;26.35;;;15.63;;
42912;SDS011;50720;54.324;18.558;2022-08-25T09:27:36;20.98;;;13.40;;
42912;SDS011;50720;54.324;18.558;2022-08-25T09:30:14;22.52;;;14.40;;
42912;SDS011;50720;54.324;18.558;2022-08-25T09:32:46;25.00;;;12.40;;
42912;SDS011;50720;54.324;18.558;2022-08-25T09:35:20;25.77;;;13.45;;
42912;SDS011;50720;54.324;18.558;2022-08-25T09:37:56;27.17;;;13.93;;
42912;SDS011;50720;54.324;18.558;2022-08-25T09:40:28;40.90;;;14.20;;
42912;SDS011;50720;54.324;18.558;2022-08-25T09:42:59;28.63;;;13.32;;
42912;SDS011;50720;54.324;18.558;2022-08-25T09:45:38;29.77;;;14.80;;
42912;SDS011;50720;54.324;18.558;2022-08-25T09:48:21;25.60;;;14.23;;
42912;SDS011;50720;54.324;18.558;2022-08-25T09:50:57;33.53;;;14.60;;
42912;SDS011;50720;54.324;18.558;2022-08-25T09:53:29;37.47;;;14.77;;
42912;SDS011;50720;54.324;18.558;2022-08-25T09:58:31;34.65;;;14.02;;
42912;SDS011;50720;54.324;18.558;2022-08-25T10:03:53;24.15;;;14.52;;
42912;SDS011;50720;54.324;18.558;2022-08-25T10:06:24;34.40;;;14.82;;
42912;SDS011;50720;54.324;18.558;2022-08-25T10:08:58;39.00;;;15.80;;
42912;SDS011;50720;54.324;18.558;2022-08-25T10:11:33;32.53;;;15.55;;
42912;SDS011;50720;54.324;18.558;2022-08-25T10:14:16;26.73;;;14.00;;
42912;SDS011;50720;54.324;18.558;2022-08-25T10:16:52;36.20;;;13.23;;
42912;SDS011;50720;54.324;18.558;2022-08-25T10:19:41;32.38;;;14.50;;
42912;SDS011;50720;54.324;18.558;2022-08-25T10:22:11;35.58;;;14.75;;
42912;SDS011;50720;54.324;18.558;2022-08-25T10:24:52;29.33;;;14.23;;
42912;SDS011;50720;54.324;18.558;2022-08-25T10:27:25;37.95;;;14.88;;
42912;SDS011;50720;54.324;18.558;2022-08-25T10:30:06;28.10;;;13.13;;
42912;SDS011;50720;54.324;18.558;2022-08-25T10:32:53;35.22;;;13.73;;
42912;SDS011;50720;54.324;18.558;2022-08-25T10:35:42;30.58;;;14.20;;
42912;SDS011;50720;54.324;18.558;2022-08-25T10:38:24;32.88;;;14.05;;
42912;SDS011;50720;54.324;18.558;2022-08-25T10:41:06;25.90;;;12.43;;
42912;SDS011;50720;54.324;18.558;2022-08-25T10:43:48;31.02;;;11.95;;
42912;SDS011;50720;54.324;18.558;2022-08-25T10:46:26;32.78;;;11.73;;
42912;SDS011;50720;54.324;18.558;2022-08-25T10:49:04;31.77;;;13.25;;
42912;SDS011;50720;54.324;18.558;2022-08-25T10:51:46;28.77;;;11.55;;
42912;SDS011;50720;54.324;18.558;2022-08-25T10:54:26;26.58;;;10.27;;
42912;SDS011;50720;54.324;18.558;2022-08-25T10:57:07;23.52;;;9.43;;
42912;SDS011;50720;54.324;18.558;2022-08-25T10:59:55;32.47;;;9.98;;
42912;SDS011;50720;54.324;18.558;2022-08-25T11:02:36;28.42;;;11.93;;
42912;SDS011;50720;54.324;18.558;2022-08-25T11:05:27;25.00;;;10.15;;
42912;SDS011;50720;54.324;18.558;2022-08-25T11:08:05;24.60;;;9.52;;
42912;SDS011;50720;54.324;18.558;2022-08-25T11:10:40;20.40;;;9.55;;
42912;SDS011;50720;54.324;18.558;2022-08-25T11:13:18;36.85;;;10.73;;
42912;SDS011;50720;54.324;18.558;2022-08-25T11:15:57;30.52;;;10.75;;
42912;SDS011;50720;54.324;18.558;2022-08-25T11:18:49;28.02;;;9.13;;
42912;SDS011;50720;54.324;18.558;2022-08-25T11:21:26;29.63;;;9.13;;
42912;SDS011;50720;54.324;18.558;2022-08-25T11:26:38;23.58;;;8.80;;
42912;SDS011;50720;54.324;18.558;2022-08-25T11:29:13;21.80;;;8.13;;
42912;SDS011;50720;54.324;18.558;2022-08-25T11:31:47;27.58;;;8.90;;
42912;SDS011;50720;54.324;18.558;2022-08-25T11:34:20;26.23;;;8.50;;
42912;SDS011;50720;54.324;18.558;2022-08-25T11:36:57;22.35;;;7.85;;
42912;SDS011;50720;54.324;18.558;2022-08-25T11:39:46;20.98;;;8.23;;
42912;SDS011;50720;54.324;18.558;2022-08-25T11:42:48;22.05;;;8.90;;
42912;SDS011;50720;54.324;18.558;2022-08-25T11:45:34;21.00;;;7.20;;
42912;SDS011;50720;54.324;18.558;2022-08-25T11:48:23;23.85;;;8.25;;
42912;SDS011;50720;54.324;18.558;2022-08-25T11:51:01;18.58;;;8.00;;
42912;SDS011;50720;54.324;18.558;2022-08-25T11:53:36;24.90;;;7.55;;
42912;SDS011;50720;54.324;18.558;2022-08-25T11:56:09;25.33;;;7.90;;
42912;SDS011;50720;54.324;18.558;2022-08-25T11:58:41;24.38;;;7.43;;
42912;SDS011;50720;54.324;18.558;2022-08-25T12:04:32;21.20;;;7.78;;
42912;SDS011;50720;54.324;18.558;2022-08-25T12:07:20;16.70;;;7.00;;
42912;SDS011;50720;54.324;18.558;2022-08-25T12:13:00;17.75;;;6.80;;
42912;SDS011;50720;54.324;18.558;2022-08-25T12:15:56;22.38;;;7.93;;
42912;SDS011;50720;54.324;18.558;2022-08-25T12:18:39;22.75;;;7.30;;
42912;SDS011;50720;54.324;18.558;2022-08-25T12:21:15;19.60;;;7.82;;
42912;SDS011;50720;54.324;18.558;2022-08-25T12:24:13;29.10;;;8.63;;
42912;SDS011;50720;54.324;18.558;2022-08-25T12:26:47;23.80;;;7.70;;
42912;SDS011;50720;54.324;18.558;2022-08-25T12:29:27;21.48;;;7.85;;
42912;SDS011;50720;54.324;18.558;2022-08-25T12:32:04;15.80;;;7.40;;
42912;SDS011;50720;54.324;18.558;2022-08-25T12:35:08;21.42;;;7.43;;
42912;SDS011;50720;54.324;18.558;2022-08-25T12:37:58;23.48;;;7.30;;
42912;SDS011;50720;54.324;18.558;2022-08-25T12:40:33;22.73;;;7.72;;
42912;SDS011;50720;54.324;18.558;2022-08-25T12:43:09;22.50;;;7.85;;
42912;SDS011;50720;54.324;18.558;2022-08-25T12:45:51;23.42;;;7.30;;
42912;SDS011;50720;54.324;18.558;2022-08-25T12:51:27;22.90;;;7.40;;
42912;SDS011;50720;54.324;18.558;2022-08-25T12:54:16;23.83;;;8.57;;
42912;SDS011;50720;54.324;18.558;2022-08-25T12:56:51;25.92;;;8.45;;
42912;SDS011;50720;54.324;18.558;2022-08-25T12:59:30;20.75;;;7.78;;
42912;SDS011;50720;54.324;18.558;2022-08-25T13:07:54;20.80;;;8.05;;
42912;SDS011;50720;54.324;18.558;2022-08-25T13:10:43;22.25;;;8.70;;
42912;SDS011;50720;54.324;18.558;2022-08-25T13:13:20;25.15;;;8.93;;
42912;SDS011;50720;54.324;18.558;2022-08-25T13:16:01;21.17;;;8.23;;
42912;SDS011;50720;54.324;18.558;2022-08-25T13:18:33;24.98;;;13.32;;
42912;SDS011;50720;54.324;18.558;2022-08-25T13:21:07;25.75;;;10.40;;
42912;SDS011;50720;54.324;18.558;2022-08-25T13:23:44;19.02;;;8.85;;
42912;SDS011;50720;54.324;18.558;2022-08-25T13:26:16;26.60;;;8.77;;
42912;SDS011;50720;54.324;18.558;2022-08-25T13:28:52;23.10;;;8.32;;
42912;SDS011;50720;54.324;18.558;2022-08-25T13:31:27;29.40;;;8.57;;
42912;SDS011;50720;54.324;18.558;2022-08-25T13:33:58;20.27;;;8.98;;
42912;SDS011;50720;54.324;18.558;2022-08-25T13:36:31;22.25;;;8.10;;
42912;SDS011;50720;54.324;18.558;2022-08-25T13:39:25;27.52;;;9.40;;
42912;SDS011;50720;54.324;18.558;2022-08-25T13:42:16;38.40;;;11.23;;
42912;SDS011;50720;54.324;18.558;2022-08-25T13:44:46;27.35;;;8.75;;
42912;SDS011;50720;54.324;18.558;2022-08-25T13:47:32;25.42;;;8.38;;
42912;SDS011;50720;54.324;18.558;2022-08-25T13:50:16;23.33;;;9.23;;
42912;SDS011;50720;54.324;18.558;2022-08-25T13:52:57;22.55;;;8.40;;
42912;SDS011;50720;54.324;18.558;2022-08-25T13:55:31;24.13;;;9.77;;
42912;SDS011;50720;54.324;18.558;2022-08-25T13:58:18;30.00;;;8.85;;
42912;SDS011;50720;54.324;18.558;2022-08-25T14:01:11;27.40;;;10.40;;
42912;SDS011;50720;54.324;18.558;2022-08-25T14:04:22;24.17;;;9.55;;
42912;SDS011;50720;54.324;18.558;2022-08-25T14:07:05;18.75;;;9.07;;
42912;SDS011;50720;54.324;18.558;2022-08-25T14:09:43;20.05;;;9.32;;
42912;SDS011;50720;54.324;18.558;2022-08-25T14:12:25;35.03;;;11.85;;
42912;SDS011;50720;54.324;18.558;2022-08-25T14:14:57;24.50;;;9.55;;
42912;SDS011;50720;54.324;18.558;2022-08-25T14:17:33;35.47;;;9.02;;
42912;SDS011;50720;54.324;18.558;2022-08-25T14:20:18;21.27;;;8.40;;
42912;SDS011;50720;54.324;18.558;2022-08-25T14:23:04;29.52;;;10.80;;
42912;SDS011;50720;54.324;18.558;2022-08-25T14:25:36;24.52;;;9.73;;
42912;SDS011;50720;54.324;18.558;2022-08-25T14:28:09;27.50;;;9.40;;
42912;SDS011;50720;54.324;18.558;2022-08-25T14:30:41;28.20;;;9.98;;
42912;SDS011;50720;54.324;18.558;2022-08-25T14:33:14;32.67;;;12.77;;
42912;SDS011;50720;54.324;18.558;2022-08-25T14:35:48;27.55;;;9.60;;
42912;SDS011;50720;54.324;18.558;2022-08-25T14:38:21;30.20;;;10.68;;
42912;SDS011;50720;54.324;18.558;2022-08-25T14:40:51;28.25;;;11.75;;
42912;SDS011;50720;54.324;18.558;2022-08-25T14:43:25;28.02;;;11.70;;
42912;SDS011;50720;54.324;18.558;2022-08-25T14:45:58;28.95;;;12.02;;
42912;SDS011;50720;54.324;18.558;2022-08-25T14:48:31;34.38;;;11.95;;
42912;SDS011;50720;54.324;18.558;2022-08-25T14:51:06;34.00;;;13.05;;
42912;SDS011;50720;54.324;18.558;2022-08-25T14:53:37;28.90;;;12.43;;
42912;SDS011;50720;54.324;18.558;2022-08-25T14:56:07;29.40;;;12.68;;
42912;SDS011;50720;54.324;18.558;2022-08-25T14:58:40;28.63;;;13.18;;
42912;SDS011;50720;54.324;18.558;2022-08-25T15:01:17;24.50;;;12.43;;
42912;SDS011;50720;54.324;18.558;2022-08-25T15:03:57;25.13;;;12.13;;
42912;SDS011;50720;54.324;18.558;2022-08-25T15:06:34;28.45;;;13.38;;
42912;SDS011;50720;54.324;18.558;2022-08-25T15:09:05;41.83;;;13.68;;
42912;SDS011;50720;54.324;18.558;2022-08-25T15:11:38;38.08;;;13.73;;
42912;SDS011;50720;54.324;18.558;2022-08-25T15:14:10;37.28;;;14.63;;
42912;SDS011;50720;54.324;18.558;2022-08-25T15:16:43;32.88;;;14.70;;
42912;SDS011;50720;54.324;18.558;2022-08-25T15:19:17;38.85;;;15.07;;
42912;SDS011;50720;54.324;18.558;2022-08-25T15:21:51;35.05;;;13.73;;
42912;SDS011;50720;54.324;18.558;2022-08-25T15:24:26;35.63;;;15.50;;
42912;SDS011;50720;54.324;18.558;2022-08-25T15:27:03;28.65;;;13.65;;
42912;SDS011;50720;54.324;18.558;2022-08-25T15:29:36;31.35;;;14.43;;
42912;SDS011;50720;54.324;18.558;2022-08-25T15:34:36;41.53;;;14.82;;
42912;SDS011;50720;54.324;18.558;2022-08-25T15:37:08;37.42;;;15.40;;
42912;SDS011;50720;54.324;18.558;2022-08-25T15:39:40;25.92;;;12.75;;
42912;SDS011;50720;54.324;18.558;2022-08-25T15:42:13;29.27;;;13.50;;
42912;SDS011;50720;54.324;18.558;2022-08-25T15:44:43;35.63;;;13.98;;